sensor_id;sensor_type;location;lat;lon;timestamp;temperature;humidity
58638;DHT22;54976;51.510;7.522;2023-10-09T00:01:28;15.50;99.90
58638;DHT22;54976;51.510;7.522;2023-10-09T00:04:30;15.50;99.90
58638;DHT22;54976;51.510;7.522;2023-10-09T00:07:31;15.60;99.90
58638;DHT22;54976;51.510;7.522;2023-10-09T00:10:33;15.50;99.90
58638;DHT22;54976;51.510;7.522;2023-10-09T00:13:49;15.50;99.90
58638;DHT22;54976;51.510;7.522;2023-10-09T00:16:49;15.50;99.90
58638;DHT22;54976;51.510;7.522;2023-10-09T00:19:56;15.50;99.90
58638;DHT22;54976;51.510;7.522;2023-10-09T00:23:00;15.60;99.90
58638;DHT22;54976;51.510;7.522;2023-10-09T00:26:01;15.50;99.90
58638;DHT22;54976;51.510;7.522;2023-10-09T00:29:16;15.50;99.90
58638;DHT22;54976;51.510;7.522;2023-10-09T00:32:22;15.60;99.90
58638;DHT22;54976;51.510;7.522;2023-10-09T00:35:27;15.70;99.90
58638;DHT22;54976;51.510;7.522;2023-10-09T00:38:38;15.70;99.90
58638;DHT22;54976;51.510;7.522;2023-10-09T00:41:46;15.90;99.90
58638;DHT22;54976;51.510;7.522;2023-10-09T00:44:47;15.90;99.90
58638;DHT22;54976;51.510;7.522;2023-10-09T00:47:49;16.00;99.90
58638;DHT22;54976;51.510;7.522;2023-10-09T00:50:50;16.10;99.90
58638;DHT22;54976;51.510;7.522;2023-10-09T00:53:59;16.20;99.90
58638;DHT22;54976;51.510;7.522;2023-10-09T00:57:07;16.30;99.90
58638;DHT22;54976;51.510;7.522;2023-10-09T01:00:08;16.40;99.90
58638;DHT22;54976;51.510;7.522;2023-10-09T01:03:32;16.40;99.90
58638;DHT22;54976;51.510;7.522;2023-10-09T01:06:34;16.50;99.90
58638;DHT22;54976;51.510;7.522;2023-10-09T01:09:43;16.60;99.90
58638;DHT22;54976;51.510;7.522;2023-10-09T01:12:45;16.60;99.90
58638;DHT22;54976;51.510;7.522;2023-10-09T01:15:47;16.60;99.90
58638;DHT22;54976;51.510;7.522;2023-10-09T01:18:50;16.70;99.90
58638;DHT22;54976;51.510;7.522;2023-10-09T01:21:51;16.70;99.90
58638;DHT22;54976;51.510;7.522;2023-10-09T01:24:52;16.80;99.90
58638;DHT22;54976;51.510;7.522;2023-10-09T01:27:55;16.90;99.90
58638;DHT22;54976;51.510;7.522;2023-10-09T01:30:57;16.80;99.90
58638;DHT22;54976;51.510;7.522;2023-10-09T01:33:57;16.80;99.90
58638;DHT22;54976;51.510;7.522;2023-10-09T01:37:00;16.90;99.90
58638;DHT22;54976;51.510;7.522;2023-10-09T01:40:05;16.90;99.90
58638;DHT22;54976;51.510;7.522;2023-10-09T01:43:25;16.90;99.90
58638;DHT22;54976;51.510;7.522;2023-10-09T01:46:27;16.90;99.90
58638;DHT22;54976;51.510;7.522;2023-10-09T01:49:28;16.90;99.90
58638;DHT22;54976;51.510;7.522;2023-10-09T01:52:31;16.80;99.90
58638;DHT22;54976;51.510;7.522;2023-10-09T01:55:36;16.90;99.90
58638;DHT22;54976;51.510;7.522;2023-10-09T01:58:36;16.80;99.90
58638;DHT22;54976;51.510;7.522;2023-10-09T02:01:37;16.80;99.90
58638;DHT22;54976;51.510;7.522;2023-10-09T02:04:41;16.80;99.90
58638;DHT22;54976;51.510;7.522;2023-10-09T02:07:42;16.80;99.90
58638;DHT22;54976;51.510;7.522;2023-10-09T02:10:52;16.70;99.90
58638;DHT22;54976;51.510;7.522;2023-10-09T02:13:56;16.70;99.90
58638;DHT22;54976;51.510;7.522;2023-10-09T02:16:57;16.80;99.90
58638;DHT22;54976;51.510;7.522;2023-10-09T02:20:06;16.70;99.90
58638;DHT22;54976;51.510;7.522;2023-10-09T02:23:18;16.60;99.90
58638;DHT22;54976;51.510;7.522;2023-10-09T02:26:24;16.60;99.90
58638;DHT22;54976;51.510;7.522;2023-10-09T02:29:40;16.50;99.90
58638;DHT22;54976;51.510;7.522;2023-10-09T02:32:43;16.50;99.90
58638;DHT22;54976;51.510;7.522;2023-10-09T02:35:45;16.50;99.90
58638;DHT22;54976;51.510;7.522;2023-10-09T02:38:45;16.50;99.90
58638;DHT22;54976;51.510;7.522;2023-10-09T02:44:55;16.60;99.90
58638;DHT22;54976;51.510;7.522;2023-10-09T02:47:59;16.60;99.90
58638;DHT22;54976;51.510;7.522;2023-10-09T02:51:00;16.70;99.90
58638;DHT22;54976;51.510;7.522;2023-10-09T02:54:03;16.70;99.90
58638;DHT22;54976;51.510;7.522;2023-10-09T02:57:27;16.70;99.90
58638;DHT22;54976;51.510;7.522;2023-10-09T03:00:37;16.70;99.90
58638;DHT22;54976;51.510;7.522;2023-10-09T03:03:37;16.70;99.90
58638;DHT22;54976;51.510;7.522;2023-10-09T03:06:38;16.80;99.90
58638;DHT22;54976;51.510;7.522;2023-10-09T03:09:43;16.80;99.90
58638;DHT22;54976;51.510;7.522;2023-10-09T03:12:44;16.80;99.90
58638;DHT22;54976;51.510;7.522;2023-10-09T03:15:45;16.80;99.90
58638;DHT22;54976;51.510;7.522;2023-10-09T03:18:52;16.80;99.90
58638;DHT22;54976;51.510;7.522;2023-10-09T03:21:53;16.80;99.90
58638;DHT22;54976;51.510;7.522;2023-10-09T03:24:54;16.80;99.90
58638;DHT22;54976;51.510;7.522;2023-10-09T03:27:56;16.80;99.90
58638;DHT22;54976;51.510;7.522;2023-10-09T03:30:59;16.90;99.90
58638;DHT22;54976;51.510;7.522;2023-10-09T03:34:06;16.90;99.90
58638;DHT22;54976;51.510;7.522;2023-10-09T03:37:08;16.90;99.90
58638;DHT22;54976;51.510;7.522;2023-10-09T03:40:22;16.90;99.90
58638;DHT22;54976;51.510;7.522;2023-10-09T03:43:22;16.90;99.90
58638;DHT22;54976;51.510;7.522;2023-10-09T03:46:24;16.90;99.90
58638;DHT22;54976;51.510;7.522;2023-10-09T03:49:33;16.90;99.90
58638;DHT22;54976;51.510;7.522;2023-10-09T03:52:33;16.90;99.90
58638;DHT22;54976;51.510;7.522;2023-10-09T03:55:36;16.90;99.90
58638;DHT22;54976;51.510;7.522;2023-10-09T03:58:42;16.90;99.90
58638;DHT22;54976;51.510;7.522;2023-10-09T04:01:43;16.80;99.90
58638;DHT22;54976;51.510;7.522;2023-10-09T04:04:44;16.80;99.90
58638;DHT22;54976;51.510;7.522;2023-10-09T04:07:47;16.80;99.90
58638;DHT22;54976;51.510;7.522;2023-10-09T04:10:49;16.70;99.90
58638;DHT22;54976;51.510;7.522;2023-10-09T04:13:53;16.70;99.90
58638;DHT22;54976;51.510;7.522;2023-10-09T04:16:54;16.70;99.90
58638;DHT22;54976;51.510;7.522;2023-10-09T04:20:05;16.70;99.90
58638;DHT22;54976;51.510;7.522;2023-10-09T04:23:35;16.80;99.90
58638;DHT22;54976;51.510;7.522;2023-10-09T04:26:37;16.80;99.90
58638;DHT22;54976;51.510;7.522;2023-10-09T04:29:37;16.80;99.90
58638;DHT22;54976;51.510;7.522;2023-10-09T04:32:39;16.80;99.90
58638;DHT22;54976;51.510;7.522;2023-10-09T04:35:40;16.80;99.90
58638;DHT22;54976;51.510;7.522;2023-10-09T04:38:46;16.80;99.90
58638;DHT22;54976;51.510;7.522;2023-10-09T04:42:07;16.80;99.90
58638;DHT22;54976;51.510;7.522;2023-10-09T04:45:26;16.80;99.90
58638;DHT22;54976;51.510;7.522;2023-10-09T04:48:46;16.80;99.90
58638;DHT22;54976;51.510;7.522;2023-10-09T04:51:47;16.80;99.90
58638;DHT22;54976;51.510;7.522;2023-10-09T04:55:01;16.80;99.90
58638;DHT22;54976;51.510;7.522;2023-10-09T04:58:15;16.80;99.90
58638;DHT22;54976;51.510;7.522;2023-10-09T05:01:24;16.90;99.80
58638;DHT22;54976;51.510;7.522;2023-10-09T05:04:36;16.90;99.90
58638;DHT22;54976;51.510;7.522;2023-10-09T05:07:41;16.90;99.70
58638;DHT22;54976;51.510;7.522;2023-10-09T05:11:11;16.90;99.90
58638;DHT22;54976;51.510;7.522;2023-10-09T05:14:30;16.90;99.80
58638;DHT22;54976;51.510;7.522;2023-10-09T05:17:40;16.90;99.80
58638;DHT22;54976;51.510;7.522;2023-10-09T05:20:52;17.00;99.70
58638;DHT22;54976;51.510;7.522;2023-10-09T05:24:18;16.90;99.50
58638;DHT22;54976;51.510;7.522;2023-10-09T05:27:19;16.90;99.60
58638;DHT22;54976;51.510;7.522;2023-10-09T05:30:24;16.90;99.40
58638;DHT22;54976;51.510;7.522;2023-10-09T05:33:25;16.90;99.50
58638;DHT22;54976;51.510;7.522;2023-10-09T05:36:28;16.90;99.50
58638;DHT22;54976;51.510;7.522;2023-10-09T05:39:29;17.00;99.50
58638;DHT22;54976;51.510;7.522;2023-10-09T05:42:42;17.00;99.40
58638;DHT22;54976;51.510;7.522;2023-10-09T05:45:42;17.00;99.30
58638;DHT22;54976;51.510;7.522;2023-10-09T05:49:06;17.00;99.20
58638;DHT22;54976;51.510;7.522;2023-10-09T05:52:22;17.00;99.10
58638;DHT22;54976;51.510;7.522;2023-10-09T05:55:38;17.10;99.20
58638;DHT22;54976;51.510;7.522;2023-10-09T05:58:57;17.10;99.20
58638;DHT22;54976;51.510;7.522;2023-10-09T06:02:13;17.10;99.20
58638;DHT22;54976;51.510;7.522;2023-10-09T06:05:46;17.00;99.20
58638;DHT22;54976;51.510;7.522;2023-10-09T06:09:08;17.00;99.80
58638;DHT22;54976;51.510;7.522;2023-10-09T06:12:15;17.00;99.60
58638;DHT22;54976;51.510;7.522;2023-10-09T06:15:37;17.00;99.80
58638;DHT22;54976;51.510;7.522;2023-10-09T06:18:50;16.90;99.90
58638;DHT22;54976;51.510;7.522;2023-10-09T06:22:12;17.00;99.90
58638;DHT22;54976;51.510;7.522;2023-10-09T06:25:12;16.90;99.90
58638;DHT22;54976;51.510;7.522;2023-10-09T06:28:18;16.90;99.90
58638;DHT22;54976;51.510;7.522;2023-10-09T06:31:33;16.90;99.90
58638;DHT22;54976;51.510;7.522;2023-10-09T06:34:58;16.90;99.90
58638;DHT22;54976;51.510;7.522;2023-10-09T06:38:17;16.90;99.90
58638;DHT22;54976;51.510;7.522;2023-10-09T06:41:33;16.90;99.90
58638;DHT22;54976;51.510;7.522;2023-10-09T06:44:38;17.00;99.90
58638;DHT22;54976;51.510;7.522;2023-10-09T06:47:53;17.00;99.90
58638;DHT22;54976;51.510;7.522;2023-10-09T06:51:09;17.10;99.90
58638;DHT22;54976;51.510;7.522;2023-10-09T06:54:09;17.10;99.90
58638;DHT22;54976;51.510;7.522;2023-10-09T06:57:15;17.20;99.90
58638;DHT22;54976;51.510;7.522;2023-10-09T07:00:30;17.20;99.90
58638;DHT22;54976;51.510;7.522;2023-10-09T07:03:50;17.30;99.70
58638;DHT22;54976;51.510;7.522;2023-10-09T07:06:53;17.30;99.70
58638;DHT22;54976;51.510;7.522;2023-10-09T07:09:57;17.30;99.50
58638;DHT22;54976;51.510;7.522;2023-10-09T07:13:16;17.30;99.70
58638;DHT22;54976;51.510;7.522;2023-10-09T07:16:22;17.50;99.70
58638;DHT22;54976;51.510;7.522;2023-10-09T07:19:31;17.50;99.60
58638;DHT22;54976;51.510;7.522;2023-10-09T07:22:35;17.60;99.30
58638;DHT22;54976;51.510;7.522;2023-10-09T07:25:41;17.60;99.40
58638;DHT22;54976;51.510;7.522;2023-10-09T07:28:42;17.70;99.20
58638;DHT22;54976;51.510;7.522;2023-10-09T07:31:43;17.70;99.40
58638;DHT22;54976;51.510;7.522;2023-10-09T07:34:50;17.80;99.30
58638;DHT22;54976;51.510;7.522;2023-10-09T07:37:53;17.80;99.00
58638;DHT22;54976;51.510;7.522;2023-10-09T07:40:55;17.80;98.80
58638;DHT22;54976;51.510;7.522;2023-10-09T07:43:56;17.90;98.90
58638;DHT22;54976;51.510;7.522;2023-10-09T07:46:58;17.90;98.80
58638;DHT22;54976;51.510;7.522;2023-10-09T07:50:17;18.00;98.70
58638;DHT22;54976;51.510;7.522;2023-10-09T07:53:21;18.00;98.60
58638;DHT22;54976;51.510;7.522;2023-10-09T07:56:29;18.00;99.00
58638;DHT22;54976;51.510;7.522;2023-10-09T07:59:31;18.00;98.90
58638;DHT22;54976;51.510;7.522;2023-10-09T08:02:31;17.90;99.00
58638;DHT22;54976;51.510;7.522;2023-10-09T08:05:32;18.00;98.80
58638;DHT22;54976;51.510;7.522;2023-10-09T08:08:44;18.00;98.70
58638;DHT22;54976;51.510;7.522;2023-10-09T08:12:03;18.00;98.70
58638;DHT22;54976;51.510;7.522;2023-10-09T08:15:35;18.00;98.70
58638;DHT22;54976;51.510;7.522;2023-10-09T08:18:51;18.10;98.60
58638;DHT22;54976;51.510;7.522;2023-10-09T08:21:52;18.10;98.40
58638;DHT22;54976;51.510;7.522;2023-10-09T08:25:12;18.20;98.40
58638;DHT22;54976;51.510;7.522;2023-10-09T08:28:28;18.20;98.60
58638;DHT22;54976;51.510;7.522;2023-10-09T08:31:43;18.20;98.40
58638;DHT22;54976;51.510;7.522;2023-10-09T08:34:46;18.20;98.30
58638;DHT22;54976;51.510;7.522;2023-10-09T08:37:54;18.20;98.30
58638;DHT22;54976;51.510;7.522;2023-10-09T08:41:05;18.20;98.60
58638;DHT22;54976;51.510;7.522;2023-10-09T08:44:19;18.10;98.70
58638;DHT22;54976;51.510;7.522;2023-10-09T08:47:23;18.20;98.60
58638;DHT22;54976;51.510;7.522;2023-10-09T08:50:24;18.30;98.40
58638;DHT22;54976;51.510;7.522;2023-10-09T08:53:28;18.30;98.40
58638;DHT22;54976;51.510;7.522;2023-10-09T08:56:32;18.30;98.40
58638;DHT22;54976;51.510;7.522;2023-10-09T08:59:33;18.30;98.50
58638;DHT22;54976;51.510;7.522;2023-10-09T09:02:35;18.20;98.30
58638;DHT22;54976;51.510;7.522;2023-10-09T09:05:36;18.20;98.80
58638;DHT22;54976;51.510;7.522;2023-10-09T09:08:37;18.20;99.00
58638;DHT22;54976;51.510;7.522;2023-10-09T09:11:41;18.30;98.80
58638;DHT22;54976;51.510;7.522;2023-10-09T09:14:49;18.40;98.80
58638;DHT22;54976;51.510;7.522;2023-10-09T09:17:51;18.50;98.50
58638;DHT22;54976;51.510;7.522;2023-10-09T09:20:52;18.60;98.20
58638;DHT22;54976;51.510;7.522;2023-10-09T09:23:59;18.80;98.40
58638;DHT22;54976;51.510;7.522;2023-10-09T09:27:03;18.90;98.40
58638;DHT22;54976;51.510;7.522;2023-10-09T09:30:22;19.10;97.90
58638;DHT22;54976;51.510;7.522;2023-10-09T09:33:26;19.30;97.40
58638;DHT22;54976;51.510;7.522;2023-10-09T09:36:53;19.30;97.40
58638;DHT22;54976;51.510;7.522;2023-10-09T09:39:58;19.40;97.10
58638;DHT22;54976;51.510;7.522;2023-10-09T09:43:02;19.50;96.90
58638;DHT22;54976;51.510;7.522;2023-10-09T09:46:07;19.60;96.60
58638;DHT22;54976;51.510;7.522;2023-10-09T09:49:08;19.80;96.60
58638;DHT22;54976;51.510;7.522;2023-10-09T09:52:22;19.90;96.20
58638;DHT22;54976;51.510;7.522;2023-10-09T09:55:28;19.90;95.40
58638;DHT22;54976;51.510;7.522;2023-10-09T09:58:34;19.90;95.80
58638;DHT22;54976;51.510;7.522;2023-10-09T10:01:45;19.90;96.00
58638;DHT22;54976;51.510;7.522;2023-10-09T10:04:59;19.90;95.40
58638;DHT22;54976;51.510;7.522;2023-10-09T10:08:03;20.10;95.60
58638;DHT22;54976;51.510;7.522;2023-10-09T10:11:07;20.20;95.40
58638;DHT22;54976;51.510;7.522;2023-10-09T10:14:14;20.30;95.20
58638;DHT22;54976;51.510;7.522;2023-10-09T10:17:31;20.40;95.00
58638;DHT22;54976;51.510;7.522;2023-10-09T10:20:32;20.40;94.60
58638;DHT22;54976;51.510;7.522;2023-10-09T10:23:33;20.40;94.40
58638;DHT22;54976;51.510;7.522;2023-10-09T10:26:37;20.40;94.50
58638;DHT22;54976;51.510;7.522;2023-10-09T10:29:38;20.30;94.50
58638;DHT22;54976;51.510;7.522;2023-10-09T10:35:58;20.40;94.60
58638;DHT22;54976;51.510;7.522;2023-10-09T10:39:06;20.40;94.40
58638;DHT22;54976;51.510;7.522;2023-10-09T10:42:30;20.40;94.30
58638;DHT22;54976;51.510;7.522;2023-10-09T10:45:36;20.30;94.30
58638;DHT22;54976;51.510;7.522;2023-10-09T10:48:44;20.30;94.40
58638;DHT22;54976;51.510;7.522;2023-10-09T10:51:49;20.40;94.60
58638;DHT22;54976;51.510;7.522;2023-10-09T10:54:50;20.50;94.50
58638;DHT22;54976;51.510;7.522;2023-10-09T10:58:18;20.50;94.50
58638;DHT22;54976;51.510;7.522;2023-10-09T11:01:36;20.60;94.40
58638;DHT22;54976;51.510;7.522;2023-10-09T11:04:55;20.60;94.20
58638;DHT22;54976;51.510;7.522;2023-10-09T11:07:59;20.60;94.20
58638;DHT22;54976;51.510;7.522;2023-10-09T11:11:11;20.60;94.00
58638;DHT22;54976;51.510;7.522;2023-10-09T11:14:16;20.60;93.90
58638;DHT22;54976;51.510;7.522;2023-10-09T11:17:23;20.60;93.90
58638;DHT22;54976;51.510;7.522;2023-10-09T11:20:25;20.70;93.60
58638;DHT22;54976;51.510;7.522;2023-10-09T11:23:32;20.70;93.60
58638;DHT22;54976;51.510;7.522;2023-10-09T11:26:53;20.80;93.50
58638;DHT22;54976;51.510;7.522;2023-10-09T11:29:57;20.80;93.20
58638;DHT22;54976;51.510;7.522;2023-10-09T11:33:06;20.90;93.30
58638;DHT22;54976;51.510;7.522;2023-10-09T11:36:21;20.90;93.10
58638;DHT22;54976;51.510;7.522;2023-10-09T11:39:34;21.00;93.10
58638;DHT22;54976;51.510;7.522;2023-10-09T11:42:35;21.00;92.80
58638;DHT22;54976;51.510;7.522;2023-10-09T11:45:35;21.10;93.10
58638;DHT22;54976;51.510;7.522;2023-10-09T11:48:38;21.00;92.50
58638;DHT22;54976;51.510;7.522;2023-10-09T11:52:08;21.10;92.90
58638;DHT22;54976;51.510;7.522;2023-10-09T11:55:09;21.20;92.80
58638;DHT22;54976;51.510;7.522;2023-10-09T11:58:17;21.20;92.60
58638;DHT22;54976;51.510;7.522;2023-10-09T12:01:23;21.20;92.60
58638;DHT22;54976;51.510;7.522;2023-10-09T12:04:25;21.10;92.30
58638;DHT22;54976;51.510;7.522;2023-10-09T12:07:30;21.10;92.40
58638;DHT22;54976;51.510;7.522;2023-10-09T12:10:31;20.90;92.30
58638;DHT22;54976;51.510;7.522;2023-10-09T12:13:34;20.80;92.40
58638;DHT22;54976;51.510;7.522;2023-10-09T12:16:34;20.80;92.70
58638;DHT22;54976;51.510;7.522;2023-10-09T12:19:38;20.90;92.70
58638;DHT22;54976;51.510;7.522;2023-10-09T12:22:39;20.90;92.60
58638;DHT22;54976;51.510;7.522;2023-10-09T12:25:41;20.90;92.70
58638;DHT22;54976;51.510;7.522;2023-10-09T12:28:45;21.00;92.80
58638;DHT22;54976;51.510;7.522;2023-10-09T12:31:50;21.00;92.50
58638;DHT22;54976;51.510;7.522;2023-10-09T12:34:58;20.90;92.50
58638;DHT22;54976;51.510;7.522;2023-10-09T12:37:59;20.80;92.70
58638;DHT22;54976;51.510;7.522;2023-10-09T12:41:05;20.80;92.90
58638;DHT22;54976;51.510;7.522;2023-10-09T12:44:19;20.70;92.90
58638;DHT22;54976;51.510;7.522;2023-10-09T12:47:20;20.60;93.00
58638;DHT22;54976;51.510;7.522;2023-10-09T12:50:21;20.50;93.00
58638;DHT22;54976;51.510;7.522;2023-10-09T12:53:28;20.70;93.20
58638;DHT22;54976;51.510;7.522;2023-10-09T12:56:29;20.70;93.00
58638;DHT22;54976;51.510;7.522;2023-10-09T12:59:39;20.70;93.00
58638;DHT22;54976;51.510;7.522;2023-10-09T13:02:40;20.70;93.00
58638;DHT22;54976;51.510;7.522;2023-10-09T13:05:51;20.70;92.90
58638;DHT22;54976;51.510;7.522;2023-10-09T13:08:58;20.80;92.90
58638;DHT22;54976;51.510;7.522;2023-10-09T13:12:00;20.70;92.90
58638;DHT22;54976;51.510;7.522;2023-10-09T13:15:01;20.60;92.80
58638;DHT22;54976;51.510;7.522;2023-10-09T13:18:01;20.50;93.20
58638;DHT22;54976;51.510;7.522;2023-10-09T13:21:02;20.40;93.20
58638;DHT22;54976;51.510;7.522;2023-10-09T13:24:06;20.40;93.40
58638;DHT22;54976;51.510;7.522;2023-10-09T13:27:13;20.40;93.30
58638;DHT22;54976;51.510;7.522;2023-10-09T13:30:21;20.50;93.40
58638;DHT22;54976;51.510;7.522;2023-10-09T13:33:22;20.50;93.40
58638;DHT22;54976;51.510;7.522;2023-10-09T13:36:22;20.50;93.40
58638;DHT22;54976;51.510;7.522;2023-10-09T13:39:33;20.50;93.50
58638;DHT22;54976;51.510;7.522;2023-10-09T13:42:39;20.60;93.30
58638;DHT22;54976;51.510;7.522;2023-10-09T13:45:40;20.60;93.30
58638;DHT22;54976;51.510;7.522;2023-10-09T13:48:41;20.60;93.00
58638;DHT22;54976;51.510;7.522;2023-10-09T13:51:43;20.60;93.00
58638;DHT22;54976;51.510;7.522;2023-10-09T13:54:45;20.50;93.40
58638;DHT22;54976;51.510;7.522;2023-10-09T13:57:50;20.50;93.40
58638;DHT22;54976;51.510;7.522;2023-10-09T14:00:50;20.50;93.30
58638;DHT22;54976;51.510;7.522;2023-10-09T14:03:57;20.60;93.40
58638;DHT22;54976;51.510;7.522;2023-10-09T14:06:58;20.60;93.20
58638;DHT22;54976;51.510;7.522;2023-10-09T14:10:00;20.50;93.20
58638;DHT22;54976;51.510;7.522;2023-10-09T14:13:17;20.50;93.30
58638;DHT22;54976;51.510;7.522;2023-10-09T14:16:27;20.50;93.30
58638;DHT22;54976;51.510;7.522;2023-10-09T14:19:28;20.50;93.30
58638;DHT22;54976;51.510;7.522;2023-10-09T14:22:33;20.60;93.40
58638;DHT22;54976;51.510;7.522;2023-10-09T14:25:38;20.60;93.20
58638;DHT22;54976;51.510;7.522;2023-10-09T14:28:44;20.60;93.10
58638;DHT22;54976;51.510;7.522;2023-10-09T14:31:45;20.60;93.10
58638;DHT22;54976;51.510;7.522;2023-10-09T14:35:00;20.60;93.30
58638;DHT22;54976;51.510;7.522;2023-10-09T14:38:13;20.50;93.20
58638;DHT22;54976;51.510;7.522;2023-10-09T14:41:13;20.60;93.40
58638;DHT22;54976;51.510;7.522;2023-10-09T14:44:14;20.50;93.40
58638;DHT22;54976;51.510;7.522;2023-10-09T14:47:16;20.50;93.40
58638;DHT22;54976;51.510;7.522;2023-10-09T14:50:19;20.40;93.50
58638;DHT22;54976;51.510;7.522;2023-10-09T14:53:22;20.40;93.60
58638;DHT22;54976;51.510;7.522;2023-10-09T14:56:28;20.40;93.70
58638;DHT22;54976;51.510;7.522;2023-10-09T14:59:31;20.40;93.80
58638;DHT22;54976;51.510;7.522;2023-10-09T15:02:33;20.30;93.80
58638;DHT22;54976;51.510;7.522;2023-10-09T15:05:34;20.30;94.10
58638;DHT22;54976;51.510;7.522;2023-10-09T15:08:35;20.30;94.10
58638;DHT22;54976;51.510;7.522;2023-10-09T15:11:36;20.20;94.10
58638;DHT22;54976;51.510;7.522;2023-10-09T15:14:40;20.20;94.10
58638;DHT22;54976;51.510;7.522;2023-10-09T15:17:42;20.20;94.40
58638;DHT22;54976;51.510;7.522;2023-10-09T15:20:49;20.10;94.20
58638;DHT22;54976;51.510;7.522;2023-10-09T15:23:56;20.10;94.30
58638;DHT22;54976;51.510;7.522;2023-10-09T15:26:56;20.10;94.50
58638;DHT22;54976;51.510;7.522;2023-10-09T15:29:57;20.10;94.60
58638;DHT22;54976;51.510;7.522;2023-10-09T15:32:58;20.00;94.50
58638;DHT22;54976;51.510;7.522;2023-10-09T15:35:58;20.00;94.80
58638;DHT22;54976;51.510;7.522;2023-10-09T15:38:59;20.00;94.90
58638;DHT22;54976;51.510;7.522;2023-10-09T15:42:00;20.00;95.00
58638;DHT22;54976;51.510;7.522;2023-10-09T15:45:00;20.00;95.20
58638;DHT22;54976;51.510;7.522;2023-10-09T15:48:01;19.90;95.20
58638;DHT22;54976;51.510;7.522;2023-10-09T15:51:09;19.90;95.50
58638;DHT22;54976;51.510;7.522;2023-10-09T15:54:12;19.90;95.40
58638;DHT22;54976;51.510;7.522;2023-10-09T15:57:14;19.90;95.40
58638;DHT22;54976;51.510;7.522;2023-10-09T16:00:16;19.80;95.40
58638;DHT22;54976;51.510;7.522;2023-10-09T16:03:20;19.80;95.50
58638;DHT22;54976;51.510;7.522;2023-10-09T16:06:20;19.80;95.50
58638;DHT22;54976;51.510;7.522;2023-10-09T16:09:21;19.90;95.70
58638;DHT22;54976;51.510;7.522;2023-10-09T16:12:22;19.80;95.50
58638;DHT22;54976;51.510;7.522;2023-10-09T16:15:23;19.90;95.80
58638;DHT22;54976;51.510;7.522;2023-10-09T16:18:26;19.80;95.80
58638;DHT22;54976;51.510;7.522;2023-10-09T16:21:27;19.80;95.70
58638;DHT22;54976;51.510;7.522;2023-10-09T16:24:31;19.80;95.80
58638;DHT22;54976;51.510;7.522;2023-10-09T16:27:35;19.80;95.80
58638;DHT22;54976;51.510;7.522;2023-10-09T16:30:36;19.80;95.80
58638;DHT22;54976;51.510;7.522;2023-10-09T16:33:37;19.80;95.90
58638;DHT22;54976;51.510;7.522;2023-10-09T16:36:38;19.70;95.90
58638;DHT22;54976;51.510;7.522;2023-10-09T16:39:38;19.70;96.00
58638;DHT22;54976;51.510;7.522;2023-10-09T16:42:42;19.70;96.00
58638;DHT22;54976;51.510;7.522;2023-10-09T16:45:43;19.70;96.20
58638;DHT22;54976;51.510;7.522;2023-10-09T16:48:44;19.60;96.30
58638;DHT22;54976;51.510;7.522;2023-10-09T16:51:46;19.50;96.30
58638;DHT22;54976;51.510;7.522;2023-10-09T16:54:47;19.50;96.50
58638;DHT22;54976;51.510;7.522;2023-10-09T16:57:47;19.50;96.80
58638;DHT22;54976;51.510;7.522;2023-10-09T17:00:48;19.40;96.90
58638;DHT22;54976;51.510;7.522;2023-10-09T17:03:50;19.30;97.00
58638;DHT22;54976;51.510;7.522;2023-10-09T17:06:58;19.30;97.20
58638;DHT22;54976;51.510;7.522;2023-10-09T17:09:59;19.20;97.60
58638;DHT22;54976;51.510;7.522;2023-10-09T17:12:59;19.20;97.40
58638;DHT22;54976;51.510;7.522;2023-10-09T17:16:01;19.20;97.50
58638;DHT22;54976;51.510;7.522;2023-10-09T17:19:03;19.10;97.60
58638;DHT22;54976;51.510;7.522;2023-10-09T17:22:06;19.10;97.70
58638;DHT22;54976;51.510;7.522;2023-10-09T17:25:11;19.10;97.80
58638;DHT22;54976;51.510;7.522;2023-10-09T17:28:13;19.10;97.90
58638;DHT22;54976;51.510;7.522;2023-10-09T17:31:21;19.00;98.00
58638;DHT22;54976;51.510;7.522;2023-10-09T17:34:23;19.00;98.00
58638;DHT22;54976;51.510;7.522;2023-10-09T17:37:27;19.00;98.00
58638;DHT22;54976;51.510;7.522;2023-10-09T17:40:27;19.00;98.20
58638;DHT22;54976;51.510;7.522;2023-10-09T17:43:28;18.90;98.20
58638;DHT22;54976;51.510;7.522;2023-10-09T17:46:31;18.90;98.30
58638;DHT22;54976;51.510;7.522;2023-10-09T17:49:32;18.90;98.40
58638;DHT22;54976;51.510;7.522;2023-10-09T17:52:32;18.90;98.40
58638;DHT22;54976;51.510;7.522;2023-10-09T17:55:37;18.90;98.40
58638;DHT22;54976;51.510;7.522;2023-10-09T17:58:38;18.90;98.50
58638;DHT22;54976;51.510;7.522;2023-10-09T18:01:39;18.90;98.50
58638;DHT22;54976;51.510;7.522;2023-10-09T18:04:40;18.90;98.50
58638;DHT22;54976;51.510;7.522;2023-10-09T18:07:42;18.90;98.50
58638;DHT22;54976;51.510;7.522;2023-10-09T18:10:44;18.90;98.60
58638;DHT22;54976;51.510;7.522;2023-10-09T18:13:45;18.90;98.60
58638;DHT22;54976;51.510;7.522;2023-10-09T18:16:46;18.90;98.60
58638;DHT22;54976;51.510;7.522;2023-10-09T18:19:48;19.00;98.70
58638;DHT22;54976;51.510;7.522;2023-10-09T18:22:50;18.90;98.70
58638;DHT22;54976;51.510;7.522;2023-10-09T18:25:56;18.90;98.70
58638;DHT22;54976;51.510;7.522;2023-10-09T18:28:58;18.90;98.80
58638;DHT22;54976;51.510;7.522;2023-10-09T18:31:59;18.90;98.90
58638;DHT22;54976;51.510;7.522;2023-10-09T18:35:00;18.90;98.90
58638;DHT22;54976;51.510;7.522;2023-10-09T18:38:01;18.80;98.90
58638;DHT22;54976;51.510;7.522;2023-10-09T18:41:08;18.80;99.00
58638;DHT22;54976;51.510;7.522;2023-10-09T18:44:11;18.80;99.10
58638;DHT22;54976;51.510;7.522;2023-10-09T18:47:11;18.70;99.20
58638;DHT22;54976;51.510;7.522;2023-10-09T18:50:15;18.70;99.20
58638;DHT22;54976;51.510;7.522;2023-10-09T18:53:16;18.70;99.30
58638;DHT22;54976;51.510;7.522;2023-10-09T18:56:17;18.70;99.30
58638;DHT22;54976;51.510;7.522;2023-10-09T18:59:22;18.80;99.40
58638;DHT22;54976;51.510;7.522;2023-10-09T19:02:23;18.70;99.30
58638;DHT22;54976;51.510;7.522;2023-10-09T19:05:29;18.80;99.30
58638;DHT22;54976;51.510;7.522;2023-10-09T19:08:31;18.70;99.40
58638;DHT22;54976;51.510;7.522;2023-10-09T19:11:33;18.60;99.50
58638;DHT22;54976;51.510;7.522;2023-10-09T19:14:35;18.60;99.50
58638;DHT22;54976;51.510;7.522;2023-10-09T19:17:37;18.60;99.60
58638;DHT22;54976;51.510;7.522;2023-10-09T19:20:38;18.50;99.80
58638;DHT22;54976;51.510;7.522;2023-10-09T19:23:40;18.40;99.90
58638;DHT22;54976;51.510;7.522;2023-10-09T19:26:41;18.40;99.90
58638;DHT22;54976;51.510;7.522;2023-10-09T19:29:45;18.40;99.90
58638;DHT22;54976;51.510;7.522;2023-10-09T19:32:47;18.30;99.90
58638;DHT22;54976;51.510;7.522;2023-10-09T19:35:48;18.40;99.90
58638;DHT22;54976;51.510;7.522;2023-10-09T19:38:49;18.40;99.90